Terminal Aerodrome Forecast
Issued by NWS Upton, NY

Home | Current Version | Previous Version | Text Only | Print | Product List | Glossary On
Versions: 1 2 3 4 5 6 7 8 9 10 11 12 13 14 15 16 17 18 19 20 21 22 23 24 25 26 27 28 29 30 31 32 33
000
FTUS41 KOKX 050248 AAA
TAFISP
TAF AMD
KISP 050248Z 0503/0524 05013KT 6SM BR SCT008 OVC012
     FM050700 04013G17KT 5SM BR BKN008 OVC012
     FM051200 03014G20KT 5SM -DZ BR OVC008
     FM051300 03015G20KT P6SM -DZ FEW008 OVC015=

USA.gov is the U.S. government's official web portal to all federal, state and local government web resources and services.